createdAt,value
2023-03-23T15:58:15.949Z,1.20
2023-03-23T16:00:47.146Z,1.20
2023-03-23T16:03:20.901Z,1.00
2023-03-23T16:05:48.713Z,0.90
2023-03-23T16:08:16.642Z,1.00
2023-03-23T16:10:44.882Z,1.10
2023-03-23T16:13:12.948Z,5.27
2023-03-23T16:15:40.712Z,0.87
2023-03-23T16:18:17.007Z,1.80
2023-03-23T16:20:44.882Z,1.33
2023-03-23T16:23:12.653Z,0.90
2023-03-23T16:25:40.599Z,1.00
2023-03-23T16:28:12.335Z,0.90
2023-03-23T16:30:43.611Z,1.00
2023-03-23T16:33:12.749Z,1.10
2023-03-23T16:35:40.957Z,0.87
2023-03-23T16:38:09.397Z,0.90
2023-03-23T16:40:37.576Z,0.90
2023-03-23T16:43:08.359Z,1.00
2023-03-23T16:45:43.255Z,1.23
2023-03-23T16:48:14.779Z,1.40
2023-03-23T16:50:43.603Z,1.27
2023-03-23T16:53:11.774Z,1.07
2023-03-23T16:55:40.600Z,1.30
2023-03-23T16:58:17.011Z,1.33
2023-03-23T17:00:48.015Z,1.30
2023-03-23T17:03:17.362Z,1.20
2023-03-23T17:05:46.235Z,1.27
2023-03-23T17:08:14.285Z,1.30
2023-03-23T17:10:43.689Z,1.57
2023-03-23T17:13:11.626Z,1.30
2023-03-23T17:15:39.926Z,1.30
2023-03-23T17:18:08.135Z,1.50
2023-03-23T17:20:37.343Z,1.13
2023-03-23T17:23:05.883Z,1.30
2023-03-23T17:25:33.738Z,1.67
2023-03-23T17:28:05.719Z,1.47
2023-03-23T17:30:34.179Z,1.50
2023-03-23T17:33:01.946Z,1.20
2023-03-23T17:35:29.807Z,1.27
2023-03-23T17:37:59.081Z,1.50
2023-03-23T17:40:27.292Z,1.50
2023-03-23T17:42:55.885Z,1.47
2023-03-23T17:45:24.357Z,1.47
2023-03-23T17:47:52.867Z,2.40
2023-03-23T17:50:21.040Z,2.40
2023-03-23T17:52:49.942Z,4.80
2023-03-23T17:55:19.193Z,3.97
2023-03-23T17:57:46.933Z,3.70
2023-03-23T18:00:15.788Z,2.53
2023-03-23T18:02:43.668Z,2.47
2023-03-23T18:05:11.848Z,1.70
2023-03-23T18:07:39.655Z,1.77
2023-03-23T18:10:11.881Z,1.70
2023-03-23T18:12:42.944Z,1.60
2023-03-23T18:15:11.579Z,1.40
2023-03-23T18:17:39.556Z,1.80
2023-03-23T18:20:08.940Z,1.80
2023-03-23T18:22:36.810Z,2.30
2023-03-23T18:25:05.215Z,1.50
2023-03-23T18:27:33.166Z,1.40
2023-03-23T18:30:02.713Z,1.40
2023-03-23T18:32:30.480Z,1.40
2023-03-23T18:34:58.382Z,1.20
2023-03-23T18:37:26.667Z,1.53
2023-03-23T18:39:54.571Z,1.83
2023-03-23T18:42:22.480Z,1.60
2023-03-23T18:44:50.187Z,1.50
2023-03-23T18:47:19.259Z,1.80
2023-03-23T18:49:51.084Z,1.60
2023-03-23T18:52:19.107Z,1.93
2023-03-23T18:54:46.899Z,1.60
2023-03-23T18:57:15.191Z,1.50
2023-03-23T18:59:43.014Z,1.73
2023-03-23T19:02:11.779Z,2.43
2023-03-23T19:04:41.076Z,2.13
2023-03-23T19:07:08.773Z,2.00
2023-03-23T19:09:36.886Z,2.50
2023-03-23T19:12:04.726Z,2.73
2023-03-23T19:14:32.549Z,1.80
2023-03-23T19:17:00.383Z,2.00
2023-03-23T19:19:28.352Z,2.00
2023-03-23T19:21:57.356Z,2.40
2023-03-23T19:24:26.277Z,2.03
2023-03-23T19:26:54.053Z,2.90
2023-03-23T19:31:52.588Z,2.07
2023-03-23T19:34:21.740Z,2.17
2023-03-23T19:36:55.044Z,2.10
2023-03-23T19:39:28.560Z,2.00
2023-03-23T19:41:56.767Z,2.00
2023-03-23T19:44:25.466Z,1.73
2023-03-23T19:46:54.518Z,1.97
2023-03-23T19:49:22.503Z,1.57
2023-03-23T19:51:50.426Z,1.60
2023-03-23T19:54:18.110Z,2.10
2023-03-23T19:56:47.863Z,1.87
2023-03-23T19:59:16.639Z,1.97
2023-03-23T20:01:45.352Z,1.43
2023-03-23T20:04:13.380Z,2.00
2023-03-23T20:06:41.292Z,2.00
2023-03-23T20:09:09.358Z,1.90
2023-03-23T20:11:37.409Z,1.87
2023-03-23T20:14:07.025Z,2.20
2023-03-23T20:16:34.874Z,1.70
2023-03-23T20:19:04.914Z,1.63
2023-03-23T20:21:33.704Z,1.87
2023-03-23T20:24:01.621Z,1.90
2023-03-23T20:26:32.179Z,2.33
2023-03-23T20:29:00.602Z,2.77
2023-03-23T20:31:33.132Z,2.90
2023-03-23T20:34:08.428Z,1.53
2023-03-23T20:36:40.505Z,2.13
2023-03-23T20:39:12.122Z,1.97
2023-03-23T20:41:40.573Z,2.07
2023-03-23T20:44:13.936Z,1.97
2023-03-23T20:46:43.488Z,1.73
2023-03-23T20:49:11.433Z,2.30
2023-03-23T20:51:42.953Z,2.80
2023-03-23T20:54:10.952Z,2.23
2023-03-23T20:56:40.546Z,6.73
2023-03-23T20:59:08.413Z,5.20
2023-03-23T21:01:37.034Z,3.10
2023-03-23T21:04:08.154Z,2.70
2023-03-23T21:06:37.228Z,2.30
2023-03-23T21:09:06.186Z,2.57
2023-03-23T21:11:35.286Z,2.20
2023-03-23T21:14:03.864Z,2.00
2023-03-23T21:16:32.025Z,1.53
2023-03-23T21:19:00.299Z,1.80
2023-03-23T21:21:29.933Z,2.23
2023-03-23T21:23:57.988Z,2.27
2023-03-23T21:26:28.508Z,2.47
2023-03-23T21:28:59.999Z,2.37
2023-03-23T21:31:30.727Z,2.40
2023-03-23T21:33:58.982Z,2.63
2023-03-23T21:36:27.996Z,2.90
2023-03-23T21:38:57.971Z,3.37
2023-03-23T21:41:27.020Z,3.00
2023-03-23T21:43:54.990Z,3.00
2023-03-23T21:46:24.440Z,3.40
2023-03-23T21:48:52.773Z,3.30
2023-03-23T21:51:24.417Z,3.60
2023-03-23T21:53:54.116Z,3.80
2023-03-23T21:56:28.261Z,3.70
2023-03-23T21:58:56.573Z,4.17
2023-03-23T22:01:25.333Z,4.27
2023-03-23T22:03:53.211Z,4.30
2023-03-23T22:06:26.687Z,3.83
2023-03-23T22:08:55.326Z,4.60
2023-03-23T22:11:28.213Z,4.30
2023-03-23T22:13:58.219Z,5.53
2023-03-23T22:16:27.178Z,5.20
2023-03-23T22:18:56.968Z,4.87
2023-03-23T22:21:27.769Z,5.20
2023-03-23T22:23:57.876Z,4.90
2023-03-23T22:26:28.452Z,5.77
2023-03-23T22:28:56.421Z,5.53
2023-03-23T22:31:26.673Z,5.47
2023-03-23T22:33:56.629Z,4.87
2023-03-23T22:36:26.427Z,4.37
2023-03-23T22:38:55.037Z,4.10
2023-03-23T22:41:25.191Z,4.13
2023-03-23T22:43:54.766Z,3.93
2023-03-23T22:46:22.967Z,3.97
2023-03-23T22:48:50.981Z,5.63
2023-03-23T22:51:19.914Z,5.10
2023-03-23T22:53:48.364Z,2.80
2023-03-23T22:56:16.687Z,2.60
2023-03-23T22:58:44.793Z,2.37
2023-03-23T23:01:16.345Z,2.47
2023-03-23T23:03:44.418Z,2.40
2023-03-23T23:06:13.542Z,2.07
2023-03-23T23:08:42.820Z,2.20
2023-03-23T23:11:13.655Z,2.37
2023-03-23T23:13:41.944Z,2.40
2023-03-23T23:16:11.420Z,1.70
2023-03-23T23:18:41.343Z,1.83
2023-03-23T23:21:11.705Z,1.70
2023-03-23T23:23:40.198Z,1.97
2023-03-23T23:26:08.597Z,2.03
2023-03-23T23:28:37.332Z,1.97
2023-03-23T23:31:06.329Z,1.97
2023-03-23T23:33:34.482Z,2.30
2023-03-23T23:36:04.063Z,2.30
2023-03-23T23:38:31.984Z,2.33
2023-03-23T23:40:59.941Z,2.17
2023-03-23T23:43:27.852Z,1.97
2023-03-23T23:45:55.783Z,1.67
2023-03-23T23:48:23.785Z,1.90
2023-03-23T23:50:51.890Z,2.30
2023-03-23T23:53:22.933Z,2.03
2023-03-23T23:55:51.062Z,1.77
2023-03-23T23:58:19.326Z,2.10
